Time;durP1;ratioP1;P1;durP2;ratioP2;P2;SDS_P1;SDS_P2;PMS_P1;PMS_P2;Temp;Humidity;BMP_temperature;BMP_pressure;BME280_temperature;BME280_humidity;BME280_pressure;Samples;Min_cycle;Max_cycle;Signal;HPM_P1;HPM_P2
2024/01/21 00:01:31;;;;;;;2.17;1.93;;;2.70;84.60;;;;;;6333395;22;20444;-84
2024/01/21 00:04:00;;;;;;;1.50;0.90;;;2.60;84.40;;;;;;6330034;22;20657;-82
2024/01/21 00:06:29;;;;;;;3.70;3.40;;;2.70;84.30;;;;;;6332739;22;20229;-82
2024/01/21 00:08:57;;;;;;;1.97;1.77;;;2.60;83.90;;;;;;6333376;22;20169;-82
2024/01/21 00:11:25;;;;;;;1.07;1.07;;;2.60;83.80;;;;;;6332407;22;20170;-82
2024/01/21 00:13:54;;;;;;;2.70;2.50;;;2.50;83.80;;;;;;6331300;22;20201;-82
2024/01/21 00:16:24;;;;;;;0.83;0.83;;;2.50;83.70;;;;;;6336154;22;20169;-82
2024/01/21 00:18:53;;;;;;;1.53;1.43;;;2.50;83.70;;;;;;6334661;22;20171;-82
2024/01/21 00:21:21;;;;;;;1.67;1.57;;;2.50;83.80;;;;;;6331944;22;20228;-80
2024/01/21 00:23:50;;;;;;;2.30;1.43;;;2.40;83.70;;;;;;6330174;22;20244;-81
2024/01/21 00:26:18;;;;;;;1.17;1.17;;;2.40;83.90;;;;;;6333297;22;20531;-81
2024/01/21 00:28:47;;;;;;;1.63;1.27;;;2.30;83.80;;;;;;6334028;22;20179;-82
2024/01/21 00:31:15;;;;;;;0.90;0.90;;;2.30;83.90;;;;;;6333151;22;20524;-82
2024/01/21 00:33:45;;;;;;;1.60;1.43;;;2.30;83.90;;;;;;6331508;22;20180;-82
2024/01/21 00:36:14;;;;;;;1.30;1.20;;;2.30;83.90;;;;;;6332686;22;20166;-82
2024/01/21 00:38:42;;;;;;;2.50;2.30;;;2.30;83.90;;;;;;6334093;22;20685;-82
2024/01/21 00:41:14;;;;;;;0.90;0.90;;;2.30;83.70;;;;;;6331525;22;20528;-82
2024/01/21 00:43:43;;;;;;;3.07;2.77;;;2.30;83.60;;;;;;6331156;22;20578;-82
2024/01/21 00:46:11;;;;;;;2.30;2.10;;;2.20;83.20;;;;;;6333034;22;20547;-82
2024/01/21 00:48:40;;;;;;;4.00;2.60;;;2.30;83.40;;;;;;6333800;22;20177;-81
2024/01/21 00:51:10;;;;;;;3.17;2.88;;;2.20;83.30;;;;;;6330543;22;20388;-83
2024/01/21 00:53:39;;;;;;;1.17;1.13;;;2.20;83.40;;;;;;6331004;22;20866;-82
2024/01/21 00:56:07;;;;;;;1.77;1.67;;;2.10;83.20;;;;;;6331738;22;20173;-82
2024/01/21 00:58:36;;;;;;;5.07;1.67;;;2.00;83.20;;;;;;6334096;22;20547;-83
2024/01/21 01:01:04;;;;;;;4.30;2.57;;;2.00;83.40;;;;;;6331995;22;20170;-82
2024/01/21 01:03:34;;;;;;;2.00;1.90;;;1.90;83.30;;;;;;6330069;22;20166;-82
2024/01/21 01:06:03;;;;;;;1.93;1.73;;;2.00;83.50;;;;;;6331213;22;20277;-83
2024/01/21 01:08:33;;;;;;;2.43;1.50;;;2.00;83.40;;;;;;6333734;22;20171;-83
2024/01/21 01:11:02;;;;;;;2.60;1.57;;;2.00;83.30;;;;;;6331298;22;20250;-83
2024/01/21 01:13:30;;;;;;;1.13;1.13;;;2.00;83.40;;;;;;6331577;22;20698;-84
2024/01/21 01:16:00;;;;;;;1.43;1.33;;;2.00;83.40;;;;;;6331196;22;20177;-82
2024/01/21 01:18:28;;;;;;;4.50;1.97;;;2.00;83.40;;;;;;6336036;22;20671;-83
2024/01/21 01:20:57;;;;;;;1.00;1.00;;;2.00;83.30;;;;;;6330911;22;20623;-83
2024/01/21 01:23:27;;;;;;;1.07;1.07;;;1.90;83.10;;;;;;6329522;22;20384;-83
2024/01/21 01:25:57;;;;;;;1.97;1.77;;;1.90;83.20;;;;;;6332849;22;20194;-85
2024/01/21 01:28:26;;;;;;;4.77;3.43;;;1.90;83.30;;;;;;6333126;22;20493;-85
2024/01/21 01:30:54;;;;;;;0.80;0.80;;;1.90;83.30;;;;;;6332558;22;20539;-83
2024/01/21 01:33:24;;;;;;;2.50;2.30;;;1.90;83.30;;;;;;6328375;22;20169;-82
2024/01/21 01:35:52;;;;;;;1.70;0.90;;;1.90;83.30;;;;;;6331338;22;20195;-82
2024/01/21 01:38:21;;;;;;;3.03;2.83;;;1.90;83.10;;;;;;6336658;22;20168;-81
2024/01/21 01:40:49;;;;;;;0.73;0.73;;;1.90;83.00;;;;;;6334145;22;20191;-81
2024/01/21 01:43:19;;;;;;;2.13;1.92;;;1.90;83.20;;;;;;6331983;22;21113;-81
2024/01/21 01:45:48;;;;;;;2.30;2.20;;;1.90;83.30;;;;;;6334848;22;20203;-82
2024/01/21 01:48:16;;;;;;;1.30;0.80;;;1.80;83.00;;;;;;6334754;22;20630;-82
2024/01/21 01:50:46;;;;;;;1.57;1.47;;;1.80;83.30;;;;;;6345883;22;20192;-82
2024/01/21 01:53:15;;;;;;;2.40;1.60;;;1.90;83.30;;;;;;6361393;22;20185;-82
2024/01/21 01:55:44;;;;;;;2.50;1.50;;;1.90;83.20;;;;;;6356033;22;20244;-82
2024/01/21 01:58:15;;;;;;;1.93;1.83;;;1.90;83.00;;;;;;6350388;22;20215;-82
2024/01/21 02:00:47;;;;;;;1.30;1.20;;;1.90;83.00;;;;;;6337065;22;20165;-82
2024/01/21 02:03:16;;;;;;;1.73;1.63;;;1.90;82.90;;;;;;6332041;22;20246;-81
2024/01/21 02:05:45;;;;;;;3.60;2.20;;;1.80;82.90;;;;;;6335436;22;20205;-82
2024/01/21 02:08:14;;;;;;;2.20;1.57;;;1.80;82.80;;;;;;6335058;22;20169;-81
2024/01/21 02:10:42;;;;;;;2.60;2.40;;;1.80;82.50;;;;;;6335379;22;20169;-82
2024/01/21 02:13:11;;;;;;;1.90;1.47;;;1.80;82.00;;;;;;6332483;22;20477;-81
2024/01/21 02:15:39;;;;;;;1.70;1.60;;;1.70;81.70;;;;;;6333194;22;20642;-82
2024/01/21 02:18:09;;;;;;;1.20;1.20;;;1.70;81.60;;;;;;6334796;22;20161;-81
2024/01/21 02:20:39;;;;;;;1.37;1.30;;;1.70;81.60;;;;;;6332987;22;20173;-81
2024/01/21 02:23:10;;;;;;;3.03;2.77;;;1.60;81.40;;;;;;6331775;22;20196;-82
2024/01/21 02:25:39;;;;;;;0.70;0.70;;;1.60;81.40;;;;;;6333489;22;20196;-82
2024/01/21 02:28:08;;;;;;;5.13;2.83;;;1.50;81.30;;;;;;6332726;22;20392;-81
2024/01/21 02:30:40;;;;;;;2.40;1.83;;;1.50;81.40;;;;;;6333762;22;20481;-82
2024/01/21 02:33:09;;;;;;;2.50;2.00;;;1.50;81.60;;;;;;6331430;22;20675;-82
2024/01/21 02:35:38;;;;;;;2.23;2.00;;;1.40;81.40;;;;;;6332581;22;20179;-82
2024/01/21 02:38:06;;;;;;;2.53;1.80;;;1.40;81.90;;;;;;6336263;22;20169;-81
2024/01/21 02:40:38;;;;;;;6.80;3.63;;;1.30;80.80;;;;;;6332597;22;20268;-82
2024/01/21 02:43:07;;;;;;;1.00;0.90;;;1.30;80.60;;;;;;6331925;22;20702;-82
2024/01/21 02:45:36;;;;;;;1.30;1.20;;;1.30;80.70;;;;;;6334962;22;20196;-82
2024/01/21 02:48:05;;;;;;;3.13;2.37;;;1.20;80.80;;;;;;6332210;22;20347;-81
2024/01/21 02:50:34;;;;;;;3.37;2.63;;;1.20;80.90;;;;;;6330532;22;20215;-82
2024/01/21 02:53:02;;;;;;;1.97;1.87;;;1.20;81.00;;;;;;6329468;22;20204;-82
2024/01/21 02:55:31;;;;;;;2.30;2.10;;;1.10;81.00;;;;;;6333051;22;20169;-82
2024/01/21 02:58:01;;;;;;;1.27;1.20;;;1.10;81.00;;;;;;6336478;22;20642;-82
2024/01/21 03:00:30;;;;;;;2.30;1.43;;;1.10;81.10;;;;;;6332498;22;20506;-84
2024/01/21 03:02:59;;;;;;;2.03;1.93;;;1.00;81.10;;;;;;6331844;22;20256;-84
2024/01/21 03:05:28;;;;;;;2.57;2.37;;;1.00;81.10;;;;;;6330380;22;20305;-83
2024/01/21 03:07:57;;;;;;;2.03;1.93;;;1.00;81.30;;;;;;6333005;22;20169;-84
2024/01/21 03:10:25;;;;;;;1.30;1.20;;;1.00;81.50;;;;;;6333013;22;20179;-84
2024/01/21 03:12:54;;;;;;;2.00;1.90;;;1.00;81.60;;;;;;6331893;22;20246;-84
2024/01/21 03:15:24;;;;;;;1.23;1.23;;;1.00;81.60;;;;;;6329946;22;20198;-84
2024/01/21 03:17:52;;;;;;;0.80;0.80;;;1.00;81.60;;;;;;6332796;22;20168;-84
2024/01/21 03:20:21;;;;;;;1.07;1.07;;;1.00;81.70;;;;;;6332493;22;20176;-85
2024/01/21 03:22:50;;;;;;;2.40;1.33;;;1.00;81.80;;;;;;6332694;22;20248;-85
2024/01/21 03:25:18;;;;;;;0.60;0.60;;;1.00;81.80;;;;;;6331889;22;20201;-85
2024/01/21 03:27:47;;;;;;;2.40;2.23;;;1.00;81.90;;;;;;6333191;22;20239;-84
2024/01/21 03:30:17;;;;;;;1.07;1.03;;;1.00;82.10;;;;;;6333626;22;20168;-84
2024/01/21 03:32:47;;;;;;;2.50;2.33;;;1.00;81.90;;;;;;6334033;22;20546;-83
2024/01/21 03:35:16;;;;;;;2.10;1.57;;;1.00;81.90;;;;;;6330467;22;20183;-83
2024/01/21 03:37:44;;;;;;;1.07;1.07;;;0.90;81.90;;;;;;6333875;22;20172;-82
2024/01/21 03:42:55;;;;;;;0.83;0.83;;;0.90;82.10;;;;;;6329478;22;20252;-83
2024/01/21 03:45:24;;;;;;;1.73;1.63;;;0.80;82.00;;;;;;6330914;22;20405;-82
2024/01/21 03:48:09;;;;;;;2.10;1.80;;;0.80;82.00;;;;;;6331663;22;20385;-83
2024/01/21 03:50:37;;;;;;;3.60;1.90;;;0.80;82.10;;;;;;6332569;22;20172;-83
2024/01/21 03:53:06;;;;;;;1.30;1.20;;;0.70;81.90;;;;;;6329225;22;20164;-83
2024/01/21 03:58:30;;;;;;;1.60;1.50;;;0.60;81.80;;;;;;6334047;22;20400;-85
2024/01/21 04:00:59;;;;;;;1.77;1.67;;;0.60;82.30;;;;;;6330749;22;20176;-85
2024/01/21 04:03:30;;;;;;;1.17;1.17;;;0.50;82.40;;;;;;6331019;22;20458;-85
2024/01/21 04:05:59;;;;;;;1.30;1.23;;;0.50;82.40;;;;;;6330761;22;20626;-85
2024/01/21 04:08:27;;;;;;;1.13;1.07;;;0.50;82.40;;;;;;6335111;22;20171;-85
2024/01/21 04:10:56;;;;;;;2.10;1.73;;;0.40;82.40;;;;;;6330936;22;20171;-85
2024/01/21 04:13:24;;;;;;;0.97;0.90;;;0.40;82.40;;;;;;6330892;22;20202;-85
2024/01/21 04:15:53;;;;;;;1.67;1.50;;;0.40;82.40;;;;;;6332474;22;20168;-85
2024/01/21 04:18:22;;;;;;;2.63;2.40;;;0.30;82.30;;;;;;6335575;22;20167;-84
2024/01/21 04:20:52;;;;;;;1.67;1.57;;;0.30;82.20;;;;;;6330053;22;20168;-84
2024/01/21 04:23:20;;;;;;;1.77;1.67;;;0.30;82.10;;;;;;6330502;22;20545;-85
2024/01/21 04:25:49;;;;;;;2.33;1.63;;;0.20;82.80;;;;;;6332901;22;20187;-84
2024/01/21 04:28:18;;;;;;;1.60;1.50;;;0.20;81.90;;;;;;6334252;22;20166;-84
2024/01/21 04:30:47;;;;;;;2.70;2.17;;;0.20;81.90;;;;;;6343970;22;20151;-85
2024/01/21 04:33:16;;;;;;;1.03;1.03;;;0.20;82.00;;;;;;6360469;22;20197;-84
2024/01/21 04:35:45;;;;;;;1.33;0.80;;;0.20;82.00;;;;;;6350039;22;20169;-85
2024/01/21 04:38:15;;;;;;;6.83;1.37;;;0.20;82.00;;;;;;6343526;22;20259;-86
2024/01/21 04:40:43;;;;;;;1.53;1.07;;;0.10;81.90;;;;;;6334194;22;20247;-85
2024/01/21 04:43:12;;;;;;;1.70;1.27;;;0.10;81.90;;;;;;6328556;22;20573;-85
2024/01/21 04:45:40;;;;;;;0.70;0.70;;;0.10;81.90;;;;;;6332753;22;20187;-84
2024/01/21 04:48:09;;;;;;;1.20;1.13;;;0.00;81.90;;;;;;6332858;22;20255;-83
2024/01/21 04:50:38;;;;;;;1.43;1.33;;;0.00;82.00;;;;;;6331705;22;20175;-84
2024/01/21 04:53:06;;;;;;;0.90;0.87;;;0.00;82.00;;;;;;6327529;22;20588;-83
2024/01/21 04:55:36;;;;;;;1.47;1.37;;;0.00;82.20;;;;;;6334168;22;20561;-84
2024/01/21 04:58:05;;;;;;;1.47;1.37;;;0.00;82.00;;;;;;6332515;22;20187;-83
2024/01/21 05:00:33;;;;;;;0.93;0.93;;;0.00;82.20;;;;;;6333281;22;20449;-84
2024/01/21 05:03:02;;;;;;;0.70;0.70;;;0.00;82.10;;;;;;6328782;22;20172;-83
2024/01/21 05:05:30;;;;;;;1.53;1.23;;;0.00;82.10;;;;;;6331346;22;20202;-83
2024/01/21 05:07:59;;;;;;;1.63;1.23;;;0.00;82.20;;;;;;6334033;22;20194;-84
2024/01/21 05:10:28;;;;;;;1.80;1.70;;;0.00;82.20;;;;;;6331916;22;20176;-84
2024/01/21 05:12:57;;;;;;;1.90;1.20;;;-0.10;82.00;;;;;;6330463;22;20172;-83
2024/01/21 05:15:26;;;;;;;1.17;1.13;;;0.00;82.00;;;;;;6330643;22;20182;-84
2024/01/21 05:17:56;;;;;;;1.07;0.97;;;-0.10;81.90;;;;;;6333131;22;20210;-84
2024/01/21 05:20:25;;;;;;;0.87;0.87;;;-0.10;81.90;;;;;;6332298;22;20171;-83
2024/01/21 05:22:54;;;;;;;2.13;1.27;;;-0.10;81.70;;;;;;6330626;22;20513;-84
2024/01/21 05:25:23;;;;;;;1.77;1.67;;;-0.10;81.70;;;;;;6327931;22;20506;-84
2024/01/21 05:27:52;;;;;;;3.10;1.73;;;-0.10;81.70;;;;;;6329332;22;20199;-83
2024/01/21 05:30:22;;;;;;;1.07;1.07;;;-0.20;81.60;;;;;;6333253;22;20251;-84
2024/01/21 05:32:51;;;;;;;0.83;0.83;;;-0.20;81.60;;;;;;6332528;22;20253;-84
2024/01/21 05:35:33;;;;;;;0.60;0.60;;;-0.20;81.60;;;;;;6328492;22;20175;-84
2024/01/21 05:38:02;;;;;;;3.90;2.40;;;-0.30;81.60;;;;;;6333098;22;20170;-83
2024/01/21 05:40:30;;;;;;;4.03;1.20;;;-0.30;81.60;;;;;;6327106;22;20169;-82
2024/01/21 05:43:00;;;;;;;0.80;0.80;;;-0.30;81.50;;;;;;6329756;22;20649;-84
2024/01/21 05:45:31;;;;;;;1.17;1.17;;;-0.40;81.30;;;;;;6325816;22;20242;-84
2024/01/21 05:47:59;;;;;;;0.83;0.83;;;-0.30;81.50;;;;;;6330597;22;20191;-83
2024/01/21 05:50:28;;;;;;;0.60;0.60;;;-0.40;81.30;;;;;;6327786;22;20288;-84
2024/01/21 05:52:56;;;;;;;0.80;0.80;;;-0.40;81.30;;;;;;6326405;22;20580;-83
2024/01/21 05:55:25;;;;;;;1.63;1.53;;;-0.40;81.20;;;;;;6326650;22;20951;-84
2024/01/21 05:57:53;;;;;;;1.97;1.87;;;-0.50;81.20;;;;;;6330290;22;20614;-84
2024/01/21 06:00:23;;;;;;;5.97;2.53;;;-0.60;81.10;;;;;;6328072;22;20176;-83
2024/01/21 06:02:53;;;;;;;2.93;2.73;;;-0.60;81.50;;;;;;6330904;22;20549;-83
2024/01/21 06:05:22;;;;;;;1.73;1.63;;;-0.70;81.70;;;;;;6325570;22;20195;-84
2024/01/21 06:07:50;;;;;;;0.97;0.97;;;-0.60;81.90;;;;;;6331529;22;20199;-83
2024/01/21 06:10:19;;;;;;;2.43;1.80;;;-0.70;82.10;;;;;;6328857;22;20206;-82
2024/01/21 06:12:47;;;;;;;3.70;1.87;;;-0.70;82.20;;;;;;6333999;22;20509;-81
2024/01/21 06:15:16;;;;;;;2.23;1.57;;;-0.80;82.50;;;;;;6327208;22;20176;-81
2024/01/21 06:17:44;;;;;;;0.90;0.90;;;-0.80;82.70;;;;;;6332323;22;20178;-81
2024/01/21 06:20:43;;;;;;;2.77;2.00;;;-0.70;83.00;;;;;;6328885;22;20175;-81
2024/01/21 06:26:16;;;;;;;2.60;2.40;;;-0.70;83.60;;;;;;6331677;22;20567;-79
2024/01/21 06:31:41;;;;;;;0.90;0.90;;;-0.80;84.70;;;;;;6334164;22;20168;-88
2024/01/21 06:34:09;;;;;;;0.83;0.83;;;-0.70;85.10;;;;;;6332191;22;20246;-84
2024/01/21 06:36:38;;;;;;;0.80;0.80;;;-0.80;86.10;;;;;;6334599;22;20176;-81
2024/01/21 06:39:09;;;;;;;1.87;1.77;;;-0.80;86.70;;;;;;6335588;22;20172;-82
2024/01/21 06:41:38;;;;;;;2.37;2.27;;;-0.80;87.30;;;;;;6333549;22;20613;-80
2024/01/21 06:44:07;;;;;;;6.03;1.37;;;-0.70;87.90;;;;;;6330324;22;20202;-80
2024/01/21 06:46:35;;;;;;;1.23;1.23;;;-0.60;88.80;;;;;;6334374;22;20174;-81
2024/01/21 06:49:04;;;;;;;1.17;1.07;;;-0.60;88.70;;;;;;6332223;22;20172;-82
2024/01/21 06:51:42;;;;;;;1.67;1.57;;;-0.50;88.70;;;;;;6333618;22;20254;-82
2024/01/21 06:54:12;;;;;;;1.90;1.40;;;-0.40;89.00;;;;;;6333011;22;20174;-85
2024/01/21 06:56:43;;;;;;;2.97;2.77;;;-0.40;90.00;;;;;;6336069;22;20171;-86
2024/01/21 06:59:11;;;;;;;1.70;1.60;;;-0.30;90.00;;;;;;6338436;22;20194;-88
2024/01/21 07:01:41;;;;;;;2.50;1.17;;;-0.20;90.00;;;;;;6335361;22;20191;-86
2024/01/21 07:04:10;;;;;;;1.63;1.53;;;-0.10;90.00;;;;;;6333049;22;20178;-87
2024/01/21 07:06:39;;;;;;;2.13;2.00;;;0.00;90.30;;;;;;6333990;22;20272;-86
2024/01/21 07:09:09;;;;;;;1.97;1.77;;;0.00;90.40;;;;;;6331895;22;20204;-81
2024/01/21 07:11:43;;;;;;;1.00;1.00;;;0.20;90.30;;;;;;6335011;22;20172;-81
2024/01/21 07:14:11;;;;;;;0.70;0.70;;;0.20;90.30;;;;;;6353248;22;20208;-81
2024/01/21 07:16:39;;;;;;;1.33;1.23;;;0.20;90.50;;;;;;6361742;22;20169;-82
2024/01/21 07:19:08;;;;;;;0.70;0.70;;;0.30;90.60;;;;;;6340520;22;20173;-82
2024/01/21 07:21:37;;;;;;;2.17;2.07;;;0.40;90.60;;;;;;6335567;22;20269;-82
2024/01/21 07:24:06;;;;;;;1.60;1.03;;;0.40;90.70;;;;;;6329111;22;20222;-83
2024/01/21 07:26:34;;;;;;;2.20;2.00;;;0.50;90.80;;;;;;6332969;22;20192;-81
2024/01/21 07:29:04;;;;;;;4.03;2.77;;;0.50;90.90;;;;;;6334106;22;20202;-81
2024/01/21 07:34:15;;;;;;;5.10;2.60;;;0.70;91.00;;;;;;6329804;22;20464;-81
2024/01/21 07:36:44;;;;;;;0.70;0.70;;;0.90;90.90;;;;;;6332688;22;20251;-81
2024/01/21 07:41:54;;;;;;;6.77;1.33;;;1.00;90.90;;;;;;6330409;22;20189;-81
2024/01/21 07:44:24;;;;;;;4.43;1.97;;;1.10;90.80;;;;;;6330794;22;20623;-82
2024/01/21 07:49:36;;;;;;;1.73;1.63;;;1.40;90.80;;;;;;6332687;22;20521;-84
2024/01/21 07:52:05;;;;;;;2.27;2.07;;;1.40;90.80;;;;;;6331718;22;20247;-82
2024/01/21 07:54:33;;;;;;;2.10;1.37;;;1.60;90.80;;;;;;6330177;22;20263;-82
2024/01/21 07:57:02;;;;;;;1.00;0.90;;;1.70;90.70;;;;;;6328920;22;20224;-81
2024/01/21 07:59:32;;;;;;;2.10;1.97;;;1.80;90.60;;;;;;6335263;22;20502;-82
2024/01/21 08:02:00;;;;;;;2.63;1.90;;;1.90;90.50;;;;;;6332288;22;20168;-82
2024/01/21 08:04:29;;;;;;;4.53;3.13;;;2.00;90.50;;;;;;6329715;22;20706;-84
2024/01/21 08:06:58;;;;;;;2.00;1.60;;;2.10;90.50;;;;;;6329742;22;20276;-84
2024/01/21 08:09:27;;;;;;;0.80;0.80;;;2.10;90.40;;;;;;6334519;22;20195;-85
2024/01/21 08:11:56;;;;;;;1.27;1.20;;;2.20;90.40;;;;;;6333724;22;20286;-86
2024/01/21 08:17:08;;;;;;;0.57;0.57;;;2.30;90.30;;;;;;6330546;22;20183;-86
2024/01/21 08:19:38;;;;;;;3.33;3.03;;;2.40;90.30;;;;;;6335341;22;20209;-87
2024/01/21 08:25:05;;;;;;;2.47;1.90;;;2.60;90.70;;;;;;6327843;22;20495;-84
2024/01/21 08:27:34;;;;;;;2.70;2.43;;;2.60;90.00;;;;;;6334962;22;20167;-85
2024/01/21 08:30:04;;;;;;;1.60;1.50;;;2.60;90.10;;;;;;6329928;22;20174;-80
2024/01/21 08:32:34;;;;;;;6.20;2.40;;;2.70;90.10;;;;;;6332635;22;20392;-81
2024/01/21 08:38:00;;;;;;;0.70;0.70;;;2.80;90.00;;;;;;6330722;22;20337;-81
2024/01/21 08:40:28;;;;;;;0.90;0.90;;;2.80;90.00;;;;;;6334267;22;20168;-82
2024/01/21 08:42:57;;;;;;;1.73;1.50;;;2.90;89.90;;;;;;6330154;22;20237;-80
2024/01/21 08:45:25;;;;;;;3.00;1.27;;;2.90;89.80;;;;;;6331221;22;20657;-82
2024/01/21 08:47:55;;;;;;;1.10;1.10;;;2.90;89.70;;;;;;6331078;22;20176;-82
2024/01/21 08:50:24;;;;;;;1.37;1.27;;;3.10;89.70;;;;;;6331375;22;20176;-82
2024/01/21 08:52:53;;;;;;;1.13;1.03;;;3.10;89.80;;;;;;6330294;22;20169;-81
2024/01/21 08:55:21;;;;;;;1.17;1.17;;;3.20;89.90;;;;;;6328006;22;20255;-84
2024/01/21 08:57:50;;;;;;;2.47;1.60;;;3.20;89.90;;;;;;6334158;22;20169;-82
2024/01/21 09:00:19;;;;;;;1.67;1.57;;;3.30;89.70;;;;;;6332703;22;20479;-83
2024/01/21 09:02:48;;;;;;;0.73;0.73;;;3.30;89.40;;;;;;6331366;22;20193;-81
2024/01/21 09:05:32;;;;;;;6.13;2.20;;;3.40;89.40;;;;;;6329645;22;20188;-81
2024/01/21 09:08:02;;;;;;;1.33;1.23;;;3.40;88.40;;;;;;6331613;22;20635;-80
2024/01/21 09:10:30;;;;;;;1.37;1.27;;;3.50;88.30;;;;;;6333204;22;20207;-81
2024/01/21 09:12:59;;;;;;;1.90;1.57;;;3.50;87.90;;;;;;6328976;22;20164;-83
2024/01/21 09:18:10;;;;;;;0.70;0.70;;;3.50;88.20;;;;;;6331423;22;20168;-84
2024/01/21 09:20:40;;;;;;;1.23;1.23;;;3.60;88.40;;;;;;6334353;22;20278;-86
2024/01/21 09:23:08;;;;;;;2.40;2.20;;;3.70;88.40;;;;;;6328329;22;20699;-84
2024/01/21 09:25:37;;;;;;;1.17;1.07;;;3.80;88.40;;;;;;6331848;22;20168;-86
2024/01/21 09:28:06;;;;;;;1.23;1.00;;;3.90;88.30;;;;;;6330867;22;20168;-85
2024/01/21 09:33:31;;;;;;;8.23;1.67;;;4.00;87.30;;;;;;6328447;22;20169;-81
2024/01/21 09:36:01;;;;;;;1.47;1.37;;;4.10;86.90;;;;;;6329928;22;20172;-85
2024/01/21 09:38:29;;;;;;;1.33;1.23;;;4.10;86.60;;;;;;6332780;22;20165;-84
2024/01/21 09:41:12;;;;;;;2.23;2.03;;;4.20;86.90;;;;;;6330232;22;20218;-83
2024/01/21 09:43:42;;;;;;;0.77;0.77;;;4.30;86.90;;;;;;6329950;22;20206;-81
2024/01/21 09:46:13;;;;;;;1.23;1.17;;;4.40;87.10;;;;;;6331210;22;20195;-82
2024/01/21 09:48:42;;;;;;;1.60;1.50;;;4.30;86.20;;;;;;6334418;22;20201;-80
2024/01/21 09:51:12;;;;;;;1.27;1.23;;;4.30;85.90;;;;;;6331726;22;20196;-81
2024/01/21 10:04:44;;;;;;;1.33;1.23;;;4.60;86.30;;;;;;6330478;22;20168;-82
2024/01/21 10:09:57;;;;;;;1.40;1.20;;;4.80;85.00;;;;;;6331893;22;20530;-84
2024/01/21 10:12:26;;;;;;;1.50;1.40;;;4.90;84.90;;;;;;6333464;22;20168;-84
2024/01/21 10:14:54;;;;;;;2.07;1.87;;;5.00;85.00;;;;;;6331085;22;20268;-84
2024/01/21 10:17:25;;;;;;;3.92;1.77;;;5.00;85.00;;;;;;6333384;22;20385;-86
2024/01/21 10:19:55;;;;;;;1.47;1.37;;;5.10;85.10;;;;;;6334496;22;20174;-83
2024/01/21 10:22:26;;;;;;;1.40;1.13;;;5.20;85.00;;;;;;6337028;22;20181;-84
2024/01/21 10:24:56;;;;;;;1.27;1.17;;;5.20;84.20;;;;;;6330793;22;20166;-85
2024/01/21 10:27:25;;;;;;;2.87;2.17;;;5.30;83.90;;;;;;6333293;22;20209;-81
2024/01/21 10:29:53;;;;;;;1.57;1.47;;;5.30;84.50;;;;;;6333510;22;20193;-80
2024/01/21 10:32:22;;;;;;;1.63;1.40;;;5.40;83.50;;;;;;6331846;22;20176;-81
2024/01/21 10:34:52;;;;;;;1.03;1.03;;;5.40;83.30;;;;;;6329333;22;20249;-81
2024/01/21 10:37:22;;;;;;;3.23;2.30;;;5.50;83.00;;;;;;6330117;22;20508;-81
2024/01/21 10:39:55;;;;;;;1.30;1.27;;;5.50;82.40;;;;;;6333323;22;20167;-83
2024/01/21 10:42:24;;;;;;;2.43;1.83;;;5.50;82.30;;;;;;6332789;22;20475;-84
2024/01/21 10:44:53;;;;;;;2.20;2.00;;;5.60;82.40;;;;;;6328147;22;20228;-88
2024/01/21 10:47:23;;;;;;;0.80;0.80;;;5.50;81.40;;;;;;6333483;22;20228;-86
2024/01/21 10:49:52;;;;;;;3.07;1.13;;;5.60;81.70;;;;;;6333174;22;20792;-85
2024/01/21 10:52:21;;;;;;;4.53;2.40;;;5.70;81.90;;;;;;6333315;22;20253;-84
2024/01/21 10:55:07;;;;;;;2.40;1.57;;;5.70;81.40;;;;;;6324667;22;20179;-84
2024/01/21 10:57:36;;;;;;;1.97;1.70;;;5.80;80.90;;;;;;6299182;22;20252;-84
2024/01/21 11:03:21;;;;;;;1.77;1.00;;;6.00;81.10;;;;;;6325658;22;20839;-86
2024/01/21 11:05:52;;;;;;;1.33;1.23;;;6.00;80.50;;;;;;6306847;22;20202;-84
2024/01/21 11:11:38;;;;;;;1.67;1.57;;;6.10;81.00;;;;;;6329120;22;20202;-82
2024/01/21 11:14:32;;;;;;;3.20;2.30;;;6.20;81.20;;;;;;6328622;22;20178;-81
2024/01/21 11:17:01;;;;;;;1.70;1.60;;;6.30;80.60;;;;;;6332552;22;20175;-85
2024/01/21 11:19:50;;;;;;;3.53;1.67;;;6.30;80.30;;;;;;6329246;22;20559;-84
2024/01/21 11:22:21;;;;;;;1.57;1.47;;;6.30;80.00;;;;;;6333098;22;20251;-84
2024/01/21 11:24:51;;;;;;;1.83;1.67;;;6.40;80.30;;;;;;6328293;22;20753;-85
2024/01/21 11:27:21;;;;;;;2.40;2.10;;;6.40;80.50;;;;;;6334600;22;20248;-83
2024/01/21 11:30:10;;;;;;;5.87;1.83;;;6.40;79.40;;;;;;6332931;22;20525;-84
2024/01/21 11:32:42;;;;;;;0.73;0.73;;;6.40;78.60;;;;;;6336349;22;20171;-84
2024/01/21 11:35:16;;;;;;;2.80;1.50;;;6.40;78.30;;;;;;6327572;22;20718;-82
2024/01/21 11:37:52;;;;;;;1.70;1.07;;;6.30;77.20;;;;;;6335512;22;20165;-82
2024/01/21 11:40:21;;;;;;;2.60;2.20;;;6.30;77.80;;;;;;6334505;22;20176;-82
2024/01/21 11:42:51;;;;;;;1.50;1.40;;;6.40;78.20;;;;;;6334501;22;20169;-82
2024/01/21 11:45:21;;;;;;;1.73;1.20;;;6.40;77.90;;;;;;6332091;22;20179;-81
2024/01/21 11:47:50;;;;;;;2.97;1.53;;;6.40;77.60;;;;;;6334643;22;20168;-81
2024/01/21 11:50:19;;;;;;;1.03;0.97;;;6.40;78.00;;;;;;6333758;22;20199;-81
2024/01/21 11:52:47;;;;;;;1.47;1.23;;;6.50;78.50;;;;;;6334847;22;20169;-80
2024/01/21 11:55:21;;;;;;;2.47;1.80;;;6.50;78.30;;;;;;6331595;22;20171;-81
2024/01/21 11:57:49;;;;;;;1.27;1.17;;;6.60;78.60;;;;;;6334482;22;20477;-81
2024/01/21 12:00:20;;;;;;;4.30;1.67;;;6.50;77.90;;;;;;6334310;22;20172;-81
2024/01/21 12:02:49;;;;;;;0.97;0.97;;;6.50;78.00;;;;;;6334230;22;20172;-81
2024/01/21 12:05:19;;;;;;;1.80;1.70;;;6.50;78.10;;;;;;6330471;22;20192;-81
2024/01/21 12:07:48;;;;;;;1.60;1.50;;;6.50;77.90;;;;;;6333878;22;20168;-80
2024/01/21 12:10:16;;;;;;;1.40;1.30;;;6.50;77.70;;;;;;6334099;22;20238;-81
2024/01/21 12:12:45;;;;;;;2.57;2.27;;;6.50;77.80;;;;;;6332605;22;20172;-81
2024/01/21 12:15:14;;;;;;;1.50;1.40;;;6.50;78.00;;;;;;6327955;22;20227;-80
2024/01/21 12:17:53;;;;;;;1.23;1.13;;;6.40;77.70;;;;;;6333433;22;20183;-80
2024/01/21 12:20:22;;;;;;;4.67;2.53;;;6.50;78.10;;;;;;6334276;22;20217;-80
2024/01/21 12:22:50;;;;;;;2.08;1.55;;;6.50;78.20;;;;;;6331050;22;20377;-80
2024/01/21 12:25:19;;;;;;;2.80;1.63;;;6.50;78.60;;;;;;6327844;22;20169;-80
2024/01/21 12:27:48;;;;;;;2.67;2.47;;;6.50;78.50;;;;;;6334945;22;20175;-80
2024/01/21 12:30:16;;;;;;;1.83;1.50;;;6.40;77.90;;;;;;6332980;22;20202;-80
2024/01/21 12:32:46;;;;;;;0.67;0.67;;;6.50;78.20;;;;;;6344012;22;20164;-80
2024/01/21 12:35:26;;;;;;;2.83;2.63;;;6.50;78.10;;;;;;6358386;22;20160;-80
2024/01/21 12:37:55;;;;;;;1.97;1.87;;;6.50;78.10;;;;;;6338258;22;20172;-81
2024/01/21 12:40:23;;;;;;;3.27;2.97;;;6.50;78.50;;;;;;6336188;22;20172;-81
2024/01/21 12:42:52;;;;;;;1.43;1.33;;;6.40;78.20;;;;;;6332628;22;20210;-80
2024/01/21 12:45:22;;;;;;;1.63;1.40;;;6.40;78.00;;;;;;6328233;22;20387;-81
2024/01/21 12:47:53;;;;;;;7.73;4.10;;;6.40;78.40;;;;;;6334078;22;20194;-81
2024/01/21 12:50:22;;;;;;;1.03;1.03;;;6.40;78.30;;;;;;6334096;22;20202;-80
2024/01/21 12:52:51;;;;;;;1.17;1.07;;;6.40;78.50;;;;;;6333421;22;20172;-81
2024/01/21 12:58:02;;;;;;;2.20;2.00;;;6.20;78.20;;;;;;6330813;22;20627;-82
2024/01/21 13:03:28;;;;;;;2.77;2.57;;;6.00;78.60;;;;;;6329643;22;20443;-81
2024/01/21 13:06:00;;;;;;;1.53;1.23;;;6.00;78.70;;;;;;6331345;22;20198;-80
2024/01/21 13:08:29;;;;;;;2.23;2.10;;;6.00;78.80;;;;;;6334399;22;20162;-80
2024/01/21 13:10:58;;;;;;;1.57;1.47;;;6.00;79.00;;;;;;6327674;22;20199;-83
2024/01/21 13:13:27;;;;;;;3.80;3.37;;;5.90;79.10;;;;;;6329769;22;20182;-83
2024/01/21 13:15:56;;;;;;;2.17;2.00;;;5.90;79.30;;;;;;6331376;22;20178;-84
2024/01/21 13:18:26;;;;;;;2.40;2.13;;;5.90;79.40;;;;;;6335378;22;20169;-83
2024/01/21 13:20:57;;;;;;;9.00;6.50;;;5.80;79.60;;;;;;6331391;22;20630;-83
2024/01/21 13:23:25;;;;;;;6.47;5.83;;;5.80;79.70;;;;;;6329460;22;20201;-83
2024/01/21 13:25:54;;;;;;;3.93;3.63;;;5.70;79.80;;;;;;6332959;22;20252;-83
2024/01/21 13:28:38;;;;;;;1.63;1.50;;;5.70;79.70;;;;;;6331025;22;20692;-83
2024/01/21 13:31:07;;;;;;;2.27;2.07;;;5.70;79.80;;;;;;6333908;22;20199;-83
2024/01/21 13:33:37;;;;;;;2.20;2.10;;;5.70;79.80;;;;;;6331407;22;20648;-82
2024/01/21 13:36:07;;;;;;;1.03;1.03;;;5.60;79.80;;;;;;6332205;22;20602;-82
2024/01/21 13:38:36;;;;;;;2.77;2.57;;;5.60;80.00;;;;;;6333816;22;20169;-83
2024/01/21 13:41:04;;;;;;;1.40;1.10;;;5.60;80.20;;;;;;6335427;22;20177;-82
2024/01/21 13:43:33;;;;;;;1.33;1.23;;;5.70;80.40;;;;;;6331484;22;20175;-82
2024/01/21 13:46:02;;;;;;;2.07;1.97;;;5.60;80.10;;;;;;6333315;22;20543;-83
2024/01/21 13:48:31;;;;;;;5.10;1.80;;;5.60;79.80;;;;;;6333958;22;20169;-83
2024/01/21 13:51:01;;;;;;;1.97;1.87;;;5.60;79.60;;;;;;6332700;22;20196;-84
2024/01/21 13:53:31;;;;;;;1.60;1.33;;;5.60;79.40;;;;;;6329087;22;20176;-85
2024/01/21 13:56:00;;;;;;;1.47;1.37;;;5.50;79.60;;;;;;6334255;22;20499;-82
2024/01/21 13:58:28;;;;;;;2.67;2.50;;;5.50;79.80;;;;;;6334680;22;20201;-83
2024/01/21 14:00:56;;;;;;;2.20;1.67;;;5.40;79.70;;;;;;6331780;22;20275;-84
2024/01/21 14:03:25;;;;;;;0.90;0.90;;;5.40;79.80;;;;;;6329764;22;20173;-84
2024/01/21 14:05:55;;;;;;;4.23;1.80;;;5.40;80.00;;;;;;6331433;22;20198;-82
2024/01/21 14:08:23;;;;;;;1.73;1.63;;;5.30;80.10;;;;;;6328766;22;20554;-83